KMYV/MYV METAR and TAF weather

Enter ICAO airport designator
Station Type Date Time Source
KMYV METAR 2022/11/19 04:53 UTC NOAA

KMYV 190453Z AUTO 34011KT 10SM CLR 11/M04 A3010 RMK AO2 SLP195 T01061039 $


Station Type Date Time Source
KMYV Decoded METAR 2022/11/19 04:53 UTC NOAA

MARYSVILLE YUBA COUNTY, CA, United States (KMYV) 39-06N 121-34W 21M
Nov 18, 2022 - 11:53 PM EST / 2022.11.19 0453 UTC
Wind: from the NNW (340 degrees) at 13 MPH (11 KT):0
Visibility: 10 mile(s):0
Sky conditions: clear
Temperature: 51.1 F (10.6 C)
Dew Point: 25.0 F (-3.9 C)
Relative Humidity: 35%
Pressure (altimeter): 30.1 in. Hg (1019 hPa)
ob: KMYV 190453Z AUTO 34011KT 10SM CLR 11/M04 A3010 RMK AO2 SLP195 T01061039
cycle: 5

Station Type Date Time Source
KMYV TAF UTC NOAA

Error!

Example: see airport list